Terminal Aerodrome Forecast
Issued by NWS

Home | Current Version | Previous Version | Text Only | Print | Product List | Glossary On
Versions: 1 2 3 4 5 6 7 8 9 10 11 12 13
000
FTUS43 KMQT 241135
TAFCMX
TAF
KCMX 241135Z 2412/2512 34028G40KT 5SM -SHRA OVC010
     FM241700 34031G40KT 3SM -SHRASN OVC015
     FM242000 34027G38KT 3SM -SHSNRA OVC015
     FM250000 33020G30KT P6SM -SHSNRA OVC025
     FM250500 33015G24KT P6SM BKN050
     FM251100 33009KT P6SM BKN050=

USA.gov is the U.S. government's official web portal to all federal, state and local government web resources and services.